sensor_id;sensor_type;location;lat;lon;timestamp;temperature;humidity
19941;DHT22;10132;50.864;5.176;2023-06-14T00:01:28;19.30;1.00
19941;DHT22;10132;50.864;5.176;2023-06-14T00:03:29;19.30;99.90
19941;DHT22;10132;50.864;5.176;2023-06-14T00:05:32;19.30;20.20
19941;DHT22;10132;50.864;5.176;2023-06-14T00:07:41;19.30;46.70
19941;DHT22;10132;50.864;5.176;2023-06-14T00:09:44;19.30;68.90
19941;DHT22;10132;50.864;5.176;2023-06-14T00:11:45;19.30;1.00
19941;DHT22;10132;50.864;5.176;2023-06-14T00:13:49;19.40;1.00
19941;DHT22;10132;50.864;5.176;2023-06-14T00:15:51;19.40;1.00
19941;DHT22;10132;50.864;5.176;2023-06-14T00:17:55;19.30;1.00
19941;DHT22;10132;50.864;5.176;2023-06-14T00:20:03;19.30;1.00
19941;DHT22;10132;50.864;5.176;2023-06-14T00:22:06;19.30;99.90
19941;DHT22;10132;50.864;5.176;2023-06-14T00:24:09;19.20;1.00
19941;DHT22;10132;50.864;5.176;2023-06-14T00:26:11;19.20;1.00
19941;DHT22;10132;50.864;5.176;2023-06-14T00:28:13;19.10;1.00
19941;DHT22;10132;50.864;5.176;2023-06-14T00:30:15;19.10;1.00
19941;DHT22;10132;50.864;5.176;2023-06-14T00:32:18;19.10;1.00
19941;DHT22;10132;50.864;5.176;2023-06-14T00:34:25;19.00;99.90
19941;DHT22;10132;50.864;5.176;2023-06-14T00:36:27;19.00;1.00
19941;DHT22;10132;50.864;5.176;2023-06-14T00:38:29;19.00;1.00
19941;DHT22;10132;50.864;5.176;2023-06-14T00:40:32;18.90;15.80
19941;DHT22;10132;50.864;5.176;2023-06-14T00:42:35;18.90;91.90
19941;DHT22;10132;50.864;5.176;2023-06-14T00:44:37;18.80;1.00
19941;DHT22;10132;50.864;5.176;2023-06-14T00:46:38;18.80;1.00
19941;DHT22;10132;50.864;5.176;2023-06-14T00:48:41;18.80;99.90
19941;DHT22;10132;50.864;5.176;2023-06-14T00:50:44;18.80;1.00
19941;DHT22;10132;50.864;5.176;2023-06-14T00:52:49;18.70;99.90
19941;DHT22;10132;50.864;5.176;2023-06-14T00:54:51;18.80;1.00
19941;DHT22;10132;50.864;5.176;2023-06-14T00:56:55;18.70;1.00
19941;DHT22;10132;50.864;5.176;2023-06-14T00:58:58;18.70;1.00
19941;DHT22;10132;50.864;5.176;2023-06-14T01:01:00;18.70;99.90
19941;DHT22;10132;50.864;5.176;2023-06-14T01:03:02;18.60;1.00
19941;DHT22;10132;50.864;5.176;2023-06-14T01:05:05;18.60;99.90
19941;DHT22;10132;50.864;5.176;2023-06-14T01:07:13;18.50;1.00
19941;DHT22;10132;50.864;5.176;2023-06-14T01:09:23;18.50;99.90
19941;DHT22;10132;50.864;5.176;2023-06-14T01:11:32;18.60;1.00
19941;DHT22;10132;50.864;5.176;2023-06-14T01:13:38;18.60;1.00
19941;DHT22;10132;50.864;5.176;2023-06-14T01:15:41;18.50;1.00
19941;DHT22;10132;50.864;5.176;2023-06-14T01:17:45;18.50;99.90
19941;DHT22;10132;50.864;5.176;2023-06-14T01:19:48;18.50;1.00
19941;DHT22;10132;50.864;5.176;2023-06-14T01:21:49;18.40;1.00
19941;DHT22;10132;50.864;5.176;2023-06-14T01:23:53;18.40;1.00
19941;DHT22;10132;50.864;5.176;2023-06-14T01:25:55;18.30;1.00
19941;DHT22;10132;50.864;5.176;2023-06-14T01:28:02;18.40;99.90
19941;DHT22;10132;50.864;5.176;2023-06-14T01:30:11;18.30;1.00
19941;DHT22;10132;50.864;5.176;2023-06-14T01:32:14;18.10;99.90
19941;DHT22;10132;50.864;5.176;2023-06-14T01:34:16;18.00;99.90
19941;DHT22;10132;50.864;5.176;2023-06-14T01:36:19;18.00;99.90
19941;DHT22;10132;50.864;5.176;2023-06-14T01:38:23;18.00;81.90
19941;DHT22;10132;50.864;5.176;2023-06-14T01:40:27;18.00;1.00
19941;DHT22;10132;50.864;5.176;2023-06-14T01:42:30;18.00;1.00
19941;DHT22;10132;50.864;5.176;2023-06-14T01:44:33;18.00;99.90
19941;DHT22;10132;50.864;5.176;2023-06-14T01:46:36;18.00;99.90
19941;DHT22;10132;50.864;5.176;2023-06-14T01:48:38;17.90;99.90
19941;DHT22;10132;50.864;5.176;2023-06-14T01:50:40;17.90;1.00
19941;DHT22;10132;50.864;5.176;2023-06-14T01:52:43;17.70;99.90
19941;DHT22;10132;50.864;5.176;2023-06-14T01:54:45;17.60;99.90
19941;DHT22;10132;50.864;5.176;2023-06-14T01:56:49;17.70;1.00
19941;DHT22;10132;50.864;5.176;2023-06-14T01:58:51;17.60;1.00
19941;DHT22;10132;50.864;5.176;2023-06-14T02:00:54;17.60;1.00
19941;DHT22;10132;50.864;5.176;2023-06-14T02:02:57;17.60;1.00
19941;DHT22;10132;50.864;5.176;2023-06-14T02:04:59;17.50;1.00
19941;DHT22;10132;50.864;5.176;2023-06-14T02:07:01;17.20;18.00
19941;DHT22;10132;50.864;5.176;2023-06-14T02:09:03;17.00;1.00
19941;DHT22;10132;50.864;5.176;2023-06-14T02:11:05;16.90;1.00
19941;DHT22;10132;50.864;5.176;2023-06-14T02:13:08;16.90;99.90
19941;DHT22;10132;50.864;5.176;2023-06-14T02:15:10;17.10;4.40
19941;DHT22;10132;50.864;5.176;2023-06-14T02:17:17;17.20;1.00
19941;DHT22;10132;50.864;5.176;2023-06-14T02:19:20;17.20;99.90
19941;DHT22;10132;50.864;5.176;2023-06-14T02:21:22;17.10;99.90
19941;DHT22;10132;50.864;5.176;2023-06-14T02:23:24;17.00;99.90
19941;DHT22;10132;50.864;5.176;2023-06-14T02:25:26;16.90;1.00
19941;DHT22;10132;50.864;5.176;2023-06-14T02:27:28;16.90;1.00
19941;DHT22;10132;50.864;5.176;2023-06-14T02:29:32;17.00;1.00
19941;DHT22;10132;50.864;5.176;2023-06-14T02:31:35;17.00;1.00
19941;DHT22;10132;50.864;5.176;2023-06-14T02:33:37;16.90;1.00
19941;DHT22;10132;50.864;5.176;2023-06-14T02:35:39;16.80;1.00
19941;DHT22;10132;50.864;5.176;2023-06-14T02:37:40;16.50;99.90
19941;DHT22;10132;50.864;5.176;2023-06-14T02:39:43;16.60;99.90
19941;DHT22;10132;50.864;5.176;2023-06-14T02:41:45;16.60;58.10
19941;DHT22;10132;50.864;5.176;2023-06-14T02:43:47;16.40;99.90
19941;DHT22;10132;50.864;5.176;2023-06-14T02:45:50;16.40;99.90
19941;DHT22;10132;50.864;5.176;2023-06-14T02:47:52;16.50;27.40
19941;DHT22;10132;50.864;5.176;2023-06-14T02:49:56;16.50;1.00
19941;DHT22;10132;50.864;5.176;2023-06-14T02:52:00;16.40;1.00
19941;DHT22;10132;50.864;5.176;2023-06-14T02:54:02;16.50;1.00
19941;DHT22;10132;50.864;5.176;2023-06-14T02:56:04;16.50;1.00
19941;DHT22;10132;50.864;5.176;2023-06-14T02:58:06;16.40;1.00
19941;DHT22;10132;50.864;5.176;2023-06-14T03:00:09;16.40;1.00
19941;DHT22;10132;50.864;5.176;2023-06-14T03:02:15;16.40;1.00
19941;DHT22;10132;50.864;5.176;2023-06-14T03:04:17;16.40;99.90
19941;DHT22;10132;50.864;5.176;2023-06-14T03:06:19;16.40;1.00
19941;DHT22;10132;50.864;5.176;2023-06-14T03:08:21;16.30;1.00
19941;DHT22;10132;50.864;5.176;2023-06-14T03:10:27;16.10;99.90
19941;DHT22;10132;50.864;5.176;2023-06-14T03:12:29;16.10;1.00
19941;DHT22;10132;50.864;5.176;2023-06-14T03:14:32;16.10;1.00
19941;DHT22;10132;50.864;5.176;2023-06-14T03:16:35;16.00;99.90
19941;DHT22;10132;50.864;5.176;2023-06-14T03:18:39;16.10;99.90
19941;DHT22;10132;50.864;5.176;2023-06-14T03:20:41;16.10;99.90
19941;DHT22;10132;50.864;5.176;2023-06-14T03:22:43;16.10;99.90
19941;DHT22;10132;50.864;5.176;2023-06-14T03:24:46;16.10;99.90
19941;DHT22;10132;50.864;5.176;2023-06-14T03:26:48;16.20;90.90
19941;DHT22;10132;50.864;5.176;2023-06-14T03:28:50;16.20;39.00
19941;DHT22;10132;50.864;5.176;2023-06-14T03:30:52;16.10;1.00
19941;DHT22;10132;50.864;5.176;2023-06-14T03:32:54;16.10;99.90
19941;DHT22;10132;50.864;5.176;2023-06-14T03:34:58;16.10;99.90
19941;DHT22;10132;50.864;5.176;2023-06-14T03:37:00;16.20;1.00
19941;DHT22;10132;50.864;5.176;2023-06-14T03:39:01;16.20;99.90
19941;DHT22;10132;50.864;5.176;2023-06-14T03:41:03;16.20;94.70
19941;DHT22;10132;50.864;5.176;2023-06-14T03:43:05;16.30;64.10
19941;DHT22;10132;50.864;5.176;2023-06-14T03:45:08;16.30;1.00
19941;DHT22;10132;50.864;5.176;2023-06-14T03:47:10;16.30;1.00
19941;DHT22;10132;50.864;5.176;2023-06-14T03:49:12;16.30;1.00
19941;DHT22;10132;50.864;5.176;2023-06-14T03:51:15;16.20;36.30
19941;DHT22;10132;50.864;5.176;2023-06-14T03:53:17;16.30;1.00
19941;DHT22;10132;50.864;5.176;2023-06-14T03:55:21;16.40;1.00
19941;DHT22;10132;50.864;5.176;2023-06-14T03:57:25;16.40;99.90
19941;DHT22;10132;50.864;5.176;2023-06-14T03:59:27;16.40;99.90
19941;DHT22;10132;50.864;5.176;2023-06-14T04:01:29;16.40;99.90
19941;DHT22;10132;50.864;5.176;2023-06-14T04:03:31;16.40;99.90
19941;DHT22;10132;50.864;5.176;2023-06-14T04:05:33;16.50;99.90
19941;DHT22;10132;50.864;5.176;2023-06-14T04:07:38;16.40;58.00
19941;DHT22;10132;50.864;5.176;2023-06-14T04:09:40;16.30;1.00
19941;DHT22;10132;50.864;5.176;2023-06-14T04:11:42;16.20;11.60
19941;DHT22;10132;50.864;5.176;2023-06-14T04:13:44;16.10;1.00
19941;DHT22;10132;50.864;5.176;2023-06-14T04:15:47;16.10;1.00
19941;DHT22;10132;50.864;5.176;2023-06-14T04:17:49;16.30;99.90
19941;DHT22;10132;50.864;5.176;2023-06-14T04:19:51;16.30;1.00
19941;DHT22;10132;50.864;5.176;2023-06-14T04:21:53;16.30;99.90
19941;DHT22;10132;50.864;5.176;2023-06-14T04:23:56;16.30;62.10
19941;DHT22;10132;50.864;5.176;2023-06-14T04:25:58;16.20;99.90
19941;DHT22;10132;50.864;5.176;2023-06-14T04:28:03;16.30;99.90
19941;DHT22;10132;50.864;5.176;2023-06-14T04:30:06;16.50;99.90
19941;DHT22;10132;50.864;5.176;2023-06-14T04:32:08;16.60;99.90
19941;DHT22;10132;50.864;5.176;2023-06-14T04:34:10;16.50;1.00
19941;DHT22;10132;50.864;5.176;2023-06-14T04:36:16;16.40;99.90
19941;DHT22;10132;50.864;5.176;2023-06-14T04:38:19;16.50;99.90
19941;DHT22;10132;50.864;5.176;2023-06-14T04:40:27;16.70;14.80
19941;DHT22;10132;50.864;5.176;2023-06-14T04:42:29;16.80;1.00
19941;DHT22;10132;50.864;5.176;2023-06-14T04:44:32;16.90;99.90
19941;DHT22;10132;50.864;5.176;2023-06-14T04:46:35;16.80;1.00
19941;DHT22;10132;50.864;5.176;2023-06-14T04:48:46;16.90;1.00
19941;DHT22;10132;50.864;5.176;2023-06-14T04:50:48;17.00;1.00
19941;DHT22;10132;50.864;5.176;2023-06-14T04:52:53;17.10;90.40
19941;DHT22;10132;50.864;5.176;2023-06-14T04:54:55;17.10;1.00
19941;DHT22;10132;50.864;5.176;2023-06-14T04:56:59;17.20;1.00
19941;DHT22;10132;50.864;5.176;2023-06-14T04:59:01;17.30;99.90
19941;DHT22;10132;50.864;5.176;2023-06-14T05:01:05;17.40;99.90
19941;DHT22;10132;50.864;5.176;2023-06-14T05:03:10;17.40;1.00
19941;DHT22;10132;50.864;5.176;2023-06-14T05:05:13;17.30;1.00
19941;DHT22;10132;50.864;5.176;2023-06-14T05:07:16;17.40;19.60
19941;DHT22;10132;50.864;5.176;2023-06-14T05:09:18;17.50;99.90
19941;DHT22;10132;50.864;5.176;2023-06-14T05:11:20;17.60;99.90
19941;DHT22;10132;50.864;5.176;2023-06-14T05:13:25;17.70;81.70
19941;DHT22;10132;50.864;5.176;2023-06-14T05:15:28;17.60;99.90
19941;DHT22;10132;50.864;5.176;2023-06-14T05:17:30;17.70;1.00
19941;DHT22;10132;50.864;5.176;2023-06-14T05:19:32;17.70;1.00
19941;DHT22;10132;50.864;5.176;2023-06-14T05:21:34;17.90;99.90
19941;DHT22;10132;50.864;5.176;2023-06-14T05:23:36;18.00;99.90
19941;DHT22;10132;50.864;5.176;2023-06-14T05:25:38;18.10;99.90
19941;DHT22;10132;50.864;5.176;2023-06-14T05:27:40;18.20;99.90
19941;DHT22;10132;50.864;5.176;2023-06-14T05:29:44;18.20;85.50
19941;DHT22;10132;50.864;5.176;2023-06-14T05:31:45;18.30;1.00
19941;DHT22;10132;50.864;5.176;2023-06-14T05:33:47;18.50;41.30
19941;DHT22;10132;50.864;5.176;2023-06-14T05:35:50;18.60;99.90
19941;DHT22;10132;50.864;5.176;2023-06-14T05:37:52;18.60;1.00
19941;DHT22;10132;50.864;5.176;2023-06-14T05:39:55;18.60;99.90
19941;DHT22;10132;50.864;5.176;2023-06-14T05:41:57;18.70;1.00
19941;DHT22;10132;50.864;5.176;2023-06-14T05:43:59;18.70;99.90
19941;DHT22;10132;50.864;5.176;2023-06-14T05:46:03;18.80;1.00
19941;DHT22;10132;50.864;5.176;2023-06-14T05:48:05;19.00;1.00
19941;DHT22;10132;50.864;5.176;2023-06-14T05:50:08;19.10;1.00
19941;DHT22;10132;50.864;5.176;2023-06-14T05:52:10;19.30;99.90
19941;DHT22;10132;50.864;5.176;2023-06-14T05:54:13;19.40;1.00
19941;DHT22;10132;50.864;5.176;2023-06-14T05:56:17;19.60;1.00
19941;DHT22;10132;50.864;5.176;2023-06-14T05:58:19;19.60;1.00
19941;DHT22;10132;50.864;5.176;2023-06-14T06:00:21;19.80;1.00
19941;DHT22;10132;50.864;5.176;2023-06-14T06:02:24;20.00;1.00
19941;DHT22;10132;50.864;5.176;2023-06-14T06:04:27;20.00;1.00
19941;DHT22;10132;50.864;5.176;2023-06-14T06:06:28;20.10;1.00
19941;DHT22;10132;50.864;5.176;2023-06-14T06:08:31;20.20;1.00
19941;DHT22;10132;50.864;5.176;2023-06-14T06:10:33;20.30;99.90
19941;DHT22;10132;50.864;5.176;2023-06-14T06:12:35;20.50;1.00
19941;DHT22;10132;50.864;5.176;2023-06-14T06:14:37;20.50;1.00
19941;DHT22;10132;50.864;5.176;2023-06-14T06:16:39;20.60;1.00
19941;DHT22;10132;50.864;5.176;2023-06-14T06:18:42;20.80;1.00
19941;DHT22;10132;50.864;5.176;2023-06-14T06:20:44;20.90;99.90
19941;DHT22;10132;50.864;5.176;2023-06-14T06:22:47;20.90;99.90
19941;DHT22;10132;50.864;5.176;2023-06-14T06:24:49;21.00;99.90
19941;DHT22;10132;50.864;5.176;2023-06-14T06:26:51;21.20;1.00
19941;DHT22;10132;50.864;5.176;2023-06-14T06:28:53;21.20;1.00
19941;DHT22;10132;50.864;5.176;2023-06-14T06:30:56;21.30;1.00
19941;DHT22;10132;50.864;5.176;2023-06-14T06:32:58;21.40;1.00
19941;DHT22;10132;50.864;5.176;2023-06-14T06:35:01;21.40;1.00
19941;DHT22;10132;50.864;5.176;2023-06-14T06:37:04;21.40;1.00
19941;DHT22;10132;50.864;5.176;2023-06-14T06:39:06;21.40;1.00
19941;DHT22;10132;50.864;5.176;2023-06-14T06:41:10;21.60;1.00
19941;DHT22;10132;50.864;5.176;2023-06-14T06:43:12;21.70;1.00
19941;DHT22;10132;50.864;5.176;2023-06-14T06:45:14;21.90;1.00
19941;DHT22;10132;50.864;5.176;2023-06-14T06:47:16;22.00;1.00
19941;DHT22;10132;50.864;5.176;2023-06-14T06:49:18;22.10;99.90
19941;DHT22;10132;50.864;5.176;2023-06-14T06:51:22;22.00;99.90
19941;DHT22;10132;50.864;5.176;2023-06-14T06:53:24;22.20;99.90
19941;DHT22;10132;50.864;5.176;2023-06-14T06:55:26;22.30;99.90
19941;DHT22;10132;50.864;5.176;2023-06-14T06:57:28;22.40;99.90
19941;DHT22;10132;50.864;5.176;2023-06-14T06:59:31;22.40;99.90
19941;DHT22;10132;50.864;5.176;2023-06-14T07:01:33;22.40;99.90
19941;DHT22;10132;50.864;5.176;2023-06-14T07:03:36;22.50;99.90
19941;DHT22;10132;50.864;5.176;2023-06-14T07:05:38;22.60;99.90
19941;DHT22;10132;50.864;5.176;2023-06-14T07:07:42;22.80;70.80
19941;DHT22;10132;50.864;5.176;2023-06-14T07:09:44;22.80;46.10
19941;DHT22;10132;50.864;5.176;2023-06-14T07:11:47;22.90;29.00
19941;DHT22;10132;50.864;5.176;2023-06-14T07:13:49;23.00;1.00
19941;DHT22;10132;50.864;5.176;2023-06-14T07:15:53;23.10;1.00
19941;DHT22;10132;50.864;5.176;2023-06-14T07:17:55;23.10;1.00
19941;DHT22;10132;50.864;5.176;2023-06-14T07:20:00;23.10;1.00
19941;DHT22;10132;50.864;5.176;2023-06-14T07:22:06;23.10;1.00
19941;DHT22;10132;50.864;5.176;2023-06-14T07:24:09;23.10;1.00
19941;DHT22;10132;50.864;5.176;2023-06-14T07:26:11;23.10;1.00
19941;DHT22;10132;50.864;5.176;2023-06-14T07:28:13;23.10;1.00
19941;DHT22;10132;50.864;5.176;2023-06-14T07:30:15;23.30;1.00
19941;DHT22;10132;50.864;5.176;2023-06-14T07:32:17;23.40;1.00
19941;DHT22;10132;50.864;5.176;2023-06-14T07:34:19;23.50;1.00
19941;DHT22;10132;50.864;5.176;2023-06-14T07:36:21;23.70;1.00
19941;DHT22;10132;50.864;5.176;2023-06-14T07:38:23;23.70;1.00
19941;DHT22;10132;50.864;5.176;2023-06-14T07:40:26;23.70;1.00
19941;DHT22;10132;50.864;5.176;2023-06-14T07:42:28;23.60;1.00
19941;DHT22;10132;50.864;5.176;2023-06-14T07:44:30;23.60;1.00
19941;DHT22;10132;50.864;5.176;2023-06-14T07:46:32;23.70;1.00
19941;DHT22;10132;50.864;5.176;2023-06-14T07:48:35;23.80;1.00
19941;DHT22;10132;50.864;5.176;2023-06-14T07:50:37;24.00;1.00
19941;DHT22;10132;50.864;5.176;2023-06-14T07:52:39;24.20;1.00
19941;DHT22;10132;50.864;5.176;2023-06-14T07:54:41;24.30;1.00
19941;DHT22;10132;50.864;5.176;2023-06-14T07:56:44;24.40;1.00
19941;DHT22;10132;50.864;5.176;2023-06-14T07:58:46;24.50;1.00
19941;DHT22;10132;50.864;5.176;2023-06-14T08:00:48;24.60;1.00
19941;DHT22;10132;50.864;5.176;2023-06-14T08:02:50;24.80;1.00
19941;DHT22;10132;50.864;5.176;2023-06-14T08:04:59;25.00;1.00
19941;DHT22;10132;50.864;5.176;2023-06-14T08:07:01;24.90;1.00
19941;DHT22;10132;50.864;5.176;2023-06-14T08:09:03;24.90;1.00
19941;DHT22;10132;50.864;5.176;2023-06-14T08:11:05;25.00;1.00
19941;DHT22;10132;50.864;5.176;2023-06-14T08:13:08;25.10;1.00
19941;DHT22;10132;50.864;5.176;2023-06-14T08:15:10;25.10;1.00
19941;DHT22;10132;50.864;5.176;2023-06-14T08:17:12;25.10;1.00
19941;DHT22;10132;50.864;5.176;2023-06-14T08:19:14;25.20;1.00
19941;DHT22;10132;50.864;5.176;2023-06-14T08:21:18;25.30;99.90
19941;DHT22;10132;50.864;5.176;2023-06-14T08:23:20;25.40;99.90
19941;DHT22;10132;50.864;5.176;2023-06-14T08:25:22;25.40;1.00
19941;DHT22;10132;50.864;5.176;2023-06-14T08:27:24;25.50;99.90
19941;DHT22;10132;50.864;5.176;2023-06-14T08:29:27;25.50;99.90
19941;DHT22;10132;50.864;5.176;2023-06-14T08:31:31;25.50;99.90
19941;DHT22;10132;50.864;5.176;2023-06-14T08:33:33;25.40;99.90
19941;DHT22;10132;50.864;5.176;2023-06-14T08:35:35;25.40;99.90
19941;DHT22;10132;50.864;5.176;2023-06-14T08:37:40;25.50;99.90
19941;DHT22;10132;50.864;5.176;2023-06-14T08:39:42;25.60;99.90
19941;DHT22;10132;50.864;5.176;2023-06-14T08:41:46;25.60;99.90
19941;DHT22;10132;50.864;5.176;2023-06-14T08:43:48;25.60;99.90
19941;DHT22;10132;50.864;5.176;2023-06-14T08:45:58;25.70;99.90
19941;DHT22;10132;50.864;5.176;2023-06-14T08:48:01;25.90;99.90
19941;DHT22;10132;50.864;5.176;2023-06-14T08:50:04;26.10;99.90
19941;DHT22;10132;50.864;5.176;2023-06-14T08:52:08;26.20;99.90
19941;DHT22;10132;50.864;5.176;2023-06-14T08:54:13;26.30;99.90
19941;DHT22;10132;50.864;5.176;2023-06-14T08:56:16;26.40;99.90
19941;DHT22;10132;50.864;5.176;2023-06-14T08:58:18;26.60;99.90
19941;DHT22;10132;50.864;5.176;2023-06-14T09:00:20;26.60;99.90
19941;DHT22;10132;50.864;5.176;2023-06-14T09:02:26;26.40;99.90
19941;DHT22;10132;50.864;5.176;2023-06-14T09:04:28;26.40;99.90
19941;DHT22;10132;50.864;5.176;2023-06-14T09:06:30;26.30;99.90
19941;DHT22;10132;50.864;5.176;2023-06-14T09:08:33;26.50;99.90
19941;DHT22;10132;50.864;5.176;2023-06-14T09:10:35;26.50;99.90
19941;DHT22;10132;50.864;5.176;2023-06-14T09:12:37;26.60;99.90
19941;DHT22;10132;50.864;5.176;2023-06-14T09:14:40;26.50;99.90
19941;DHT22;10132;50.864;5.176;2023-06-14T09:16:43;26.50;99.90
19941;DHT22;10132;50.864;5.176;2023-06-14T09:18:47;26.70;99.90
19941;DHT22;10132;50.864;5.176;2023-06-14T09:20:49;26.80;99.90
19941;DHT22;10132;50.864;5.176;2023-06-14T09:22:51;26.80;99.90
19941;DHT22;10132;50.864;5.176;2023-06-14T09:24:54;26.80;99.90
19941;DHT22;10132;50.864;5.176;2023-06-14T09:26:55;26.70;99.90
19941;DHT22;10132;50.864;5.176;2023-06-14T09:28:58;26.70;99.90
19941;DHT22;10132;50.864;5.176;2023-06-14T09:31:00;26.80;99.90
19941;DHT22;10132;50.864;5.176;2023-06-14T09:33:02;26.90;99.90
19941;DHT22;10132;50.864;5.176;2023-06-14T09:35:07;26.90;99.90
19941;DHT22;10132;50.864;5.176;2023-06-14T09:37:09;27.10;99.90
19941;DHT22;10132;50.864;5.176;2023-06-14T09:39:17;27.10;99.90
19941;DHT22;10132;50.864;5.176;2023-06-14T09:41:19;27.20;99.90
19941;DHT22;10132;50.864;5.176;2023-06-14T09:43:21;27.20;99.90
19941;DHT22;10132;50.864;5.176;2023-06-14T09:45:23;27.20;99.90
19941;DHT22;10132;50.864;5.176;2023-06-14T09:47:25;27.30;99.90
19941;DHT22;10132;50.864;5.176;2023-06-14T09:49:27;27.40;99.90
19941;DHT22;10132;50.864;5.176;2023-06-14T09:51:31;27.40;99.90
19941;DHT22;10132;50.864;5.176;2023-06-14T09:53:35;27.50;99.90
19941;DHT22;10132;50.864;5.176;2023-06-14T09:55:40;27.40;99.90
19941;DHT22;10132;50.864;5.176;2023-06-14T09:57:45;27.50;99.90
19941;DHT22;10132;50.864;5.176;2023-06-14T09:59:52;27.60;99.90
19941;DHT22;10132;50.864;5.176;2023-06-14T10:01:56;27.50;99.90
19941;DHT22;10132;50.864;5.176;2023-06-14T10:04:02;27.40;99.90
19941;DHT22;10132;50.864;5.176;2023-06-14T10:06:06;27.60;99.90
19941;DHT22;10132;50.864;5.176;2023-06-14T10:08:14;27.60;99.90
19941;DHT22;10132;50.864;5.176;2023-06-14T10:10:18;27.80;99.90
19941;DHT22;10132;50.864;5.176;2023-06-14T10:12:20;27.90;99.90
19941;DHT22;10132;50.864;5.176;2023-06-14T10:14:22;28.00;99.90
19941;DHT22;10132;50.864;5.176;2023-06-14T10:16:30;27.90;99.90
19941;DHT22;10132;50.864;5.176;2023-06-14T10:18:38;28.00;99.90
19941;DHT22;10132;50.864;5.176;2023-06-14T10:20:50;27.90;99.90
19941;DHT22;10132;50.864;5.176;2023-06-14T10:22:58;27.80;99.90
19941;DHT22;10132;50.864;5.176;2023-06-14T10:25:07;28.00;99.90
19941;DHT22;10132;50.864;5.176;2023-06-14T10:27:14;28.20;99.90
19941;DHT22;10132;50.864;5.176;2023-06-14T10:29:17;28.30;99.90
19941;DHT22;10132;50.864;5.176;2023-06-14T10:31:19;28.50;99.90
19941;DHT22;10132;50.864;5.176;2023-06-14T10:33:21;28.40;99.90
19941;DHT22;10132;50.864;5.176;2023-06-14T10:35:23;28.40;99.90
19941;DHT22;10132;50.864;5.176;2023-06-14T10:37:25;28.40;99.90
19941;DHT22;10132;50.864;5.176;2023-06-14T10:39:28;28.20;99.90
19941;DHT22;10132;50.864;5.176;2023-06-14T10:41:34;28.20;99.90
19941;DHT22;10132;50.864;5.176;2023-06-14T10:43:37;28.30;99.90
19941;DHT22;10132;50.864;5.176;2023-06-14T10:46:16;28.50;99.90
19941;DHT22;10132;50.864;5.176;2023-06-14T10:48:29;28.60;99.90
19941;DHT22;10132;50.864;5.176;2023-06-14T10:50:31;28.80;99.90
19941;DHT22;10132;50.864;5.176;2023-06-14T10:52:37;29.00;99.90
19941;DHT22;10132;50.864;5.176;2023-06-14T10:57:17;29.00;99.90
19941;DHT22;10132;50.864;5.176;2023-06-14T10:59:19;29.20;99.90
19941;DHT22;10132;50.864;5.176;2023-06-14T11:01:38;29.00;99.90
19941;DHT22;10132;50.864;5.176;2023-06-14T11:03:50;28.80;99.90
19941;DHT22;10132;50.864;5.176;2023-06-14T11:05:54;28.70;99.90
19941;DHT22;10132;50.864;5.176;2023-06-14T11:08:17;28.70;99.90
19941;DHT22;10132;50.864;5.176;2023-06-14T11:10:30;29.00;99.80
19941;DHT22;10132;50.864;5.176;2023-06-14T11:12:37;29.40;99.90
19941;DHT22;10132;50.864;5.176;2023-06-14T11:14:45;29.50;94.20
19941;DHT22;10132;50.864;5.176;2023-06-14T11:16:48;29.50;92.80
19941;DHT22;10132;50.864;5.176;2023-06-14T11:18:50;29.70;92.80
19941;DHT22;10132;50.864;5.176;2023-06-14T11:20:52;29.70;93.50
19941;DHT22;10132;50.864;5.176;2023-06-14T11:22:54;29.80;92.50
19941;DHT22;10132;50.864;5.176;2023-06-14T11:24:56;29.70;90.00
19941;DHT22;10132;50.864;5.176;2023-06-14T11:27:03;29.30;92.30
19941;DHT22;10132;50.864;5.176;2023-06-14T11:29:08;29.30;92.70
19941;DHT22;10132;50.864;5.176;2023-06-14T11:31:10;29.40;83.00
19941;DHT22;10132;50.864;5.176;2023-06-14T11:33:17;29.50;83.20
19941;DHT22;10132;50.864;5.176;2023-06-14T11:35:19;29.70;73.00
19941;DHT22;10132;50.864;5.176;2023-06-14T11:37:23;29.90;87.20
19941;DHT22;10132;50.864;5.176;2023-06-14T11:39:26;30.20;92.70
19941;DHT22;10132;50.864;5.176;2023-06-14T11:41:38;30.40;74.50
19941;DHT22;10132;50.864;5.176;2023-06-14T11:43:41;30.20;80.70
19941;DHT22;10132;50.864;5.176;2023-06-14T11:45:48;30.10;76.60
19941;DHT22;10132;50.864;5.176;2023-06-14T11:47:50;29.70;78.00
19941;DHT22;10132;50.864;5.176;2023-06-14T11:49:51;29.70;67.40
19941;DHT22;10132;50.864;5.176;2023-06-14T11:51:53;29.90;55.20
19941;DHT22;10132;50.864;5.176;2023-06-14T11:53:56;29.90;60.70
19941;DHT22;10132;50.864;5.176;2023-06-14T11:55:58;30.00;51.60
19941;DHT22;10132;50.864;5.176;2023-06-14T11:58:01;29.90;47.40
19941;DHT22;10132;50.864;5.176;2023-06-14T12:00:04;30.10;58.80
19941;DHT22;10132;50.864;5.176;2023-06-14T12:02:15;30.30;55.40
19941;DHT22;10132;50.864;5.176;2023-06-14T12:04:23;30.20;66.20
19941;DHT22;10132;50.864;5.176;2023-06-14T12:06:27;30.30;64.40
19941;DHT22;10132;50.864;5.176;2023-06-14T12:08:34;30.60;41.40
19941;DHT22;10132;50.864;5.176;2023-06-14T12:10:41;30.80;44.60
19941;DHT22;10132;50.864;5.176;2023-06-14T12:12:44;30.60;30.40
19941;DHT22;10132;50.864;5.176;2023-06-14T12:14:47;29.90;20.00
19941;DHT22;10132;50.864;5.176;2023-06-14T12:16:49;29.70;20.80
19941;DHT22;10132;50.864;5.176;2023-06-14T12:18:53;29.70;22.10
19941;DHT22;10132;50.864;5.176;2023-06-14T12:20:58;30.00;18.50
19941;DHT22;10132;50.864;5.176;2023-06-14T12:23:03;30.20;20.10
19941;DHT22;10132;50.864;5.176;2023-06-14T12:25:06;30.40;24.30
19941;DHT22;10132;50.864;5.176;2023-06-14T12:27:10;30.40;13.80
19941;DHT22;10132;50.864;5.176;2023-06-14T12:29:16;30.40;19.10
19941;DHT22;10132;50.864;5.176;2023-06-14T12:31:20;30.60;13.40
19941;DHT22;10132;50.864;5.176;2023-06-14T12:33:22;30.70;5.70
19941;DHT22;10132;50.864;5.176;2023-06-14T12:35:26;30.80;12.50
19941;DHT22;10132;50.864;5.176;2023-06-14T12:37:28;30.80;17.80
19941;DHT22;10132;50.864;5.176;2023-06-14T12:39:30;30.90;11.50
19941;DHT22;10132;50.864;5.176;2023-06-14T12:41:33;31.00;10.50
19941;DHT22;10132;50.864;5.176;2023-06-14T12:43:35;31.10;13.40
19941;DHT22;10132;50.864;5.176;2023-06-14T12:45:37;31.00;11.70
19941;DHT22;10132;50.864;5.176;2023-06-14T12:47:39;30.90;5.00
19941;DHT22;10132;50.864;5.176;2023-06-14T12:49:41;30.70;7.50
19941;DHT22;10132;50.864;5.176;2023-06-14T12:51:44;30.90;18.50
19941;DHT22;10132;50.864;5.176;2023-06-14T12:53:46;31.10;14.10
19941;DHT22;10132;50.864;5.176;2023-06-14T12:55:49;31.10;14.20
19941;DHT22;10132;50.864;5.176;2023-06-14T12:57:51;31.60;10.80
19941;DHT22;10132;50.864;5.176;2023-06-14T12:59:53;31.40;10.40
19941;DHT22;10132;50.864;5.176;2023-06-14T13:01:55;31.40;15.30
19941;DHT22;10132;50.864;5.176;2023-06-14T13:03:57;31.00;3.40
19941;DHT22;10132;50.864;5.176;2023-06-14T13:05:58;30.80;1.00
19941;DHT22;10132;50.864;5.176;2023-06-14T13:08:03;31.20;6.00